createdAt,value
2023-01-08T00:00:50.327Z,98873.91
2023-01-08T00:03:18.259Z,98880.81
2023-01-08T00:05:46.289Z,98881.63
2023-01-08T00:08:14.102Z,98867.84
2023-01-08T00:11:00.204Z,98880.09
2023-01-08T00:14:05.449Z,98884.47
2023-01-08T00:16:52.440Z,98882.22
2023-01-08T00:19:20.273Z,98877.50
2023-01-08T00:22:06.383Z,98880.25
2023-01-08T00:24:34.215Z,98884.44
2023-01-08T00:27:02.071Z,98880.56
2023-01-08T00:29:30.043Z,98882.13
2023-01-08T00:31:57.866Z,98873.16
2023-01-08T00:34:25.711Z,98863.75
2023-01-08T00:36:53.675Z,98849.91
2023-01-08T00:39:21.639Z,98858.69
2023-01-08T00:42:07.872Z,98858.81
2023-01-08T00:44:35.777Z,98857.59
2023-01-08T00:47:03.513Z,98856.66
2023-01-08T00:49:31.277Z,98860.84
2023-01-08T00:51:59.184Z,98854.63
2023-01-08T00:54:26.975Z,98861.66
2023-01-08T00:56:57.697Z,98857.50
2023-01-08T00:59:25.479Z,98870.41
2023-01-08T01:01:54.947Z,98862.75
2023-01-08T01:04:22.854Z,98858.56
2023-01-08T01:06:50.902Z,98864.22
2023-01-08T01:09:18.641Z,98867.19
2023-01-08T01:11:46.448Z,98877.28
2023-01-08T01:14:17.228Z,98867.34
2023-01-08T01:16:45.325Z,98874.50
2023-01-08T01:19:31.822Z,98868.53
2023-01-08T01:21:59.952Z,98864.00
2023-01-08T01:24:46.305Z,98858.97
2023-01-08T01:27:14.155Z,98864.00
2023-01-08T01:30:00.338Z,98858.97
2023-01-08T01:32:28.167Z,98859.44
2023-01-08T01:34:56.103Z,98865.66
2023-01-08T01:37:24.042Z,98864.47
2023-01-08T01:40:11.300Z,98868.91
2023-01-08T01:42:41.807Z,98850.59
2023-01-08T01:45:22.956Z,98841.47
2023-01-08T01:48:02.875Z,98844.38
2023-01-08T01:50:33.359Z,98841.50
2023-01-08T01:53:04.196Z,98842.09
2023-01-08T01:55:32.289Z,98850.94
2023-01-08T01:58:17.392Z,98857.66
2023-01-08T02:00:45.411Z,98851.09
2023-01-08T02:03:13.928Z,98843.66
2023-01-08T02:05:47.637Z,98854.06
2023-01-08T02:08:23.149Z,98860.28
2023-01-08T02:11:32.877Z,98852.16
2023-01-08T02:14:26.484Z,98857.03
2023-01-08T02:17:06.924Z,98850.72
2023-01-08T02:19:45.671Z,98856.22
2023-01-08T02:22:47.182Z,98862.91
2023-01-08T02:25:38.539Z,98863.75
2023-01-08T02:28:09.758Z,98857.78
2023-01-08T02:30:37.712Z,98852.63
2023-01-08T02:33:05.773Z,98849.38
2023-01-08T02:35:42.958Z,98852.00
2023-01-08T02:38:12.518Z,98843.41
2023-01-08T02:41:01.389Z,98845.91
2023-01-08T02:43:55.688Z,98847.09
2023-01-08T02:46:27.416Z,98850.94
2023-01-08T02:48:57.558Z,98835.63
2023-01-08T02:51:47.039Z,98842.66
2023-01-08T02:54:17.641Z,98841.81
2023-01-08T02:57:07.383Z,98834.03
2023-01-08T02:59:35.511Z,98833.06
2023-01-08T03:02:03.754Z,98810.31
2023-01-08T03:04:50.538Z,98818.09
2023-01-08T03:07:18.445Z,98811.16
2023-01-08T03:09:46.439Z,98810.31
2023-01-08T03:12:19.655Z,98817.25
2023-01-08T03:15:06.192Z,98812.22
2023-01-08T03:17:38.076Z,98804.75
2023-01-08T03:20:09.628Z,98812.28
2023-01-08T03:22:56.877Z,98805.81
2023-01-08T03:25:44.125Z,98800.69
2023-01-08T03:28:22.281Z,98791.63
2023-01-08T03:30:50.229Z,98804.19
2023-01-08T03:33:18.905Z,98809.44
2023-01-08T03:35:51.253Z,98797.69
2023-01-08T03:38:27.630Z,98795.91
2023-01-08T03:41:21.674Z,98791.16
2023-01-08T03:43:49.604Z,98799.75
2023-01-08T03:46:24.854Z,98797.34
2023-01-08T03:49:11.033Z,98785.72
2023-01-08T03:51:43.044Z,98786.03
2023-01-08T03:54:15.805Z,98790.81
2023-01-08T03:56:43.354Z,98786.72
2023-01-08T03:59:15.331Z,98784.66
2023-01-08T04:01:43.302Z,98780.25
2023-01-08T04:04:11.655Z,98773.31
2023-01-08T04:06:57.999Z,98772.44
2023-01-08T04:09:26.051Z,98775.00
2023-01-08T04:11:53.857Z,98777.81
2023-01-08T04:14:21.732Z,98777.22
2023-01-08T04:16:49.709Z,98763.25
2023-01-08T04:19:36.425Z,98771.59
2023-01-08T04:22:04.298Z,98765.53
2023-01-08T04:25:09.463Z,98763.09
2023-01-08T04:27:37.437Z,98748.41
2023-01-08T04:30:05.666Z,98741.47
2023-01-08T04:32:33.627Z,98725.66
2023-01-08T04:35:01.691Z,98721.22
2023-01-08T04:37:29.524Z,98717.56
2023-01-08T04:39:57.331Z,98725.94
2023-01-08T04:42:43.218Z,98726.34
2023-01-08T04:45:11.244Z,98725.78
2023-01-08T04:47:39.037Z,98724.81
2023-01-08T04:50:07.255Z,98716.75
2023-01-08T04:52:35.277Z,98717.88
2023-01-08T04:55:03.147Z,98713.03
2023-01-08T04:57:49.415Z,98708.72
2023-01-08T05:00:17.580Z,98711.50
2023-01-08T05:02:45.643Z,98695.22
2023-01-08T05:05:13.659Z,98692.59
2023-01-08T05:07:41.602Z,98696.34
2023-01-08T05:10:09.923Z,98691.47
2023-01-08T05:12:37.815Z,98689.31
2023-01-08T05:15:06.120Z,98680.41
2023-01-08T05:17:33.949Z,98678.47
2023-01-08T05:20:01.724Z,98668.63
2023-01-08T05:22:29.490Z,98661.41
2023-01-08T05:24:57.333Z,98665.75
2023-01-08T05:27:25.245Z,98656.41
2023-01-08T05:29:53.010Z,98658.47
2023-01-08T05:32:21.605Z,98671.41
2023-01-08T05:34:49.695Z,98665.84
2023-01-08T05:37:17.339Z,98659.47
2023-01-08T05:39:45.268Z,98664.75
2023-01-08T05:42:13.174Z,98663.25
2023-01-08T05:44:41.146Z,98671.84
2023-01-08T05:47:08.947Z,98659.06
2023-01-08T05:49:36.724Z,98648.06
2023-01-08T05:52:04.628Z,98659.56
2023-01-08T05:54:32.436Z,98653.94
2023-01-08T05:57:00.422Z,98655.16
2023-01-08T05:59:28.303Z,98653.78
2023-01-08T06:01:56.075Z,98648.38
2023-01-08T06:04:24.364Z,98640.66
2023-01-08T06:06:52.715Z,98636.53
2023-01-08T06:09:20.594Z,98628.44
2023-01-08T06:11:51.498Z,98633.75
2023-01-08T06:14:19.463Z,98618.53
2023-01-08T06:16:47.300Z,98608.25
2023-01-08T06:19:15.300Z,98612.56
2023-01-08T06:21:43.168Z,98597.94
2023-01-08T06:24:11.176Z,98590.94
2023-01-08T06:26:39.036Z,98598.59
2023-01-08T06:29:06.803Z,98583.81
2023-01-08T06:31:35.091Z,98574.72
2023-01-08T06:34:03.023Z,98561.16
2023-01-08T06:36:30.786Z,98550.28
2023-01-08T06:38:58.883Z,98553.97
2023-01-08T06:41:26.655Z,98548.53
2023-01-08T06:43:56.262Z,98535.41
2023-01-08T06:46:24.112Z,98539.25
2023-01-08T06:48:51.945Z,98528.63
2023-01-08T06:51:19.981Z,98530.78
2023-01-08T06:53:50.890Z,98510.19
2023-01-08T06:56:52.283Z,98520.13
2023-01-08T06:59:20.954Z,98497.38
2023-01-08T07:01:49.198Z,98495.03
2023-01-08T07:04:18.062Z,98486.34
2023-01-08T07:07:04.642Z,98483.97
2023-01-08T07:09:34.094Z,98480.59
2023-01-08T07:12:01.948Z,98481.41
2023-01-08T07:14:29.800Z,98482.03
2023-01-08T07:16:57.701Z,98483.16
2023-01-08T07:19:25.473Z,98481.16
2023-01-08T07:21:53.173Z,98481.78
2023-01-08T07:24:21.040Z,98465.72
2023-01-08T07:26:49.210Z,98462.13
2023-01-08T07:29:17.135Z,98456.81
2023-01-08T07:32:03.651Z,98472.47
2023-01-08T07:34:31.603Z,98472.22
2023-01-08T07:37:18.105Z,98468.03
2023-01-08T07:39:47.015Z,98464.56
2023-01-08T07:42:15.247Z,98466.06
2023-01-08T07:44:43.298Z,98452.75
2023-01-08T07:47:11.126Z,98450.97
2023-01-08T07:49:39.210Z,98455.81
2023-01-08T07:52:07.280Z,98450.69
2023-01-08T07:54:35.387Z,98450.53
2023-01-08T07:57:03.976Z,98477.09
2023-01-08T07:59:32.562Z,98476.94
2023-01-08T08:02:22.181Z,98474.94
2023-01-08T08:04:50.301Z,98467.44
2023-01-08T08:07:18.167Z,98460.34
2023-01-08T08:09:45.963Z,98459.41
2023-01-08T08:12:15.220Z,98457.41
2023-01-08T08:14:43.369Z,98458.44
2023-01-08T08:17:11.714Z,98451.63
2023-01-08T08:19:39.678Z,98445.06
2023-01-08T08:22:07.701Z,98446.47
2023-01-08T08:24:35.489Z,98453.81
2023-01-08T08:27:03.459Z,98448.44
2023-01-08T08:29:31.309Z,98446.09
2023-01-08T08:31:59.156Z,98454.34
2023-01-08T08:34:27.047Z,98451.47
2023-01-08T08:36:54.817Z,98458.34
2023-01-08T08:39:22.750Z,98458.34
2023-01-08T08:41:50.556Z,98467.25
2023-01-08T08:44:18.435Z,98482.00
2023-01-08T08:46:46.326Z,98471.78
2023-01-08T08:49:14.384Z,98481.47
2023-01-08T08:51:42.374Z,98489.28
2023-01-08T08:54:11.780Z,98484.50
2023-01-08T08:56:39.582Z,98484.00
2023-01-08T08:59:09.697Z,98471.06
2023-01-08T09:01:37.606Z,98456.13
2023-01-08T09:04:05.509Z,98455.47
2023-01-08T09:06:33.508Z,98437.59
2023-01-08T09:09:01.447Z,98428.03
2023-01-08T09:11:29.496Z,98447.25
2023-01-08T09:13:57.221Z,98439.19
2023-01-08T09:16:25.093Z,98428.25
2023-01-08T09:18:53.154Z,98416.34
2023-01-08T09:21:20.873Z,98411.06
2023-01-08T09:23:49.794Z,98408.88
2023-01-08T09:26:17.629Z,98405.81
2023-01-08T09:28:45.429Z,98401.78
2023-01-08T09:31:13.374Z,98410.16
2023-01-08T09:33:41.252Z,98425.56
2023-01-08T09:36:12.348Z,98425.44
2023-01-08T09:38:40.125Z,98424.31
2023-01-08T09:41:28.830Z,98425.00
2023-01-08T09:43:56.865Z,98427.34
2023-01-08T09:46:27.277Z,98447.78
2023-01-08T09:49:06.965Z,98441.97
2023-01-08T09:51:36.228Z,98435.72
2023-01-08T09:54:04.165Z,98436.16
2023-01-08T09:56:32.069Z,98429.50
2023-01-08T09:59:00.595Z,98430.47
2023-01-08T10:01:35.444Z,98425.03
2023-01-08T10:04:21.912Z,98412.13
2023-01-08T10:06:53.775Z,98418.78
2023-01-08T10:09:25.443Z,98417.84
2023-01-08T10:11:53.187Z,98427.56
2023-01-08T10:14:22.662Z,98432.69
2023-01-08T10:17:02.196Z,98431.03
2023-01-08T10:19:30.028Z,98429.09
2023-01-08T10:21:58.000Z,98417.84
2023-01-08T10:24:46.168Z,98420.47
2023-01-08T10:27:16.683Z,98421.47
2023-01-08T10:29:44.581Z,98417.84
2023-01-08T10:32:20.159Z,98409.94
2023-01-08T10:34:52.384Z,98412.72
2023-01-08T10:37:24.375Z,98422.72
2023-01-08T10:39:52.648Z,98420.34
2023-01-08T10:42:20.820Z,98423.25
2023-01-08T10:45:24.016Z,98418.94
2023-01-08T10:47:53.622Z,98429.38
2023-01-08T10:50:24.292Z,98433.81
2023-01-08T10:52:57.234Z,98421.59
2023-01-08T10:55:39.417Z,98411.03
2023-01-08T10:58:10.266Z,98407.44
2023-01-08T11:00:38.349Z,98407.97
2023-01-08T11:03:19.598Z,98416.72
2023-01-08T11:05:47.948Z,98422.16
2023-01-08T11:08:18.280Z,98432.69
2023-01-08T11:11:01.985Z,98424.91
2023-01-08T11:13:30.005Z,98433.13
2023-01-08T11:16:26.030Z,98414.34
2023-01-08T11:18:53.936Z,98410.19
2023-01-08T11:21:23.832Z,98407.97
2023-01-08T11:24:36.627Z,98393.00
2023-01-08T11:27:42.410Z,98395.91
2023-01-08T11:30:22.227Z,98393.41
2023-01-08T11:33:07.457Z,98413.81
2023-01-08T11:35:53.894Z,98410.34
2023-01-08T11:38:21.807Z,98408.78
2023-01-08T11:40:52.357Z,98414.34
2023-01-08T11:43:50.808Z,98404.78
2023-01-08T11:46:32.738Z,98403.06
2023-01-08T11:49:10.193Z,98404.59
2023-01-08T11:51:54.613Z,98408.75
2023-01-08T11:54:43.072Z,98410.81
2023-01-08T11:57:32.397Z,98402.63
2023-01-08T12:00:15.796Z,98391.91
2023-01-08T12:03:03.978Z,98387.19
2023-01-08T12:05:36.056Z,98389.53
2023-01-08T12:08:06.334Z,98389.09
2023-01-08T12:10:46.646Z,98385.88
2023-01-08T12:13:33.591Z,98375.75
2023-01-08T12:16:39.070Z,98364.63
2023-01-08T12:19:09.839Z,98357.72
2023-01-08T12:21:58.781Z,98360.47
2023-01-08T12:24:51.605Z,98361.59
2023-01-08T12:27:55.934Z,98363.38
2023-01-08T12:30:52.315Z,98355.56
2023-01-08T12:33:40.341Z,98349.00
2023-01-08T12:36:14.944Z,98354.53
2023-01-08T12:38:45.149Z,98366.41
2023-01-08T12:41:19.818Z,98364.75
2023-01-08T12:43:58.674Z,98357.97
2023-01-08T12:46:28.015Z,98360.13
2023-01-08T12:48:57.508Z,98358.47
2023-01-08T12:51:30.747Z,98360.41
2023-01-08T12:54:15.773Z,98356.94
2023-01-08T12:57:10.707Z,98347.50
2023-01-08T12:59:45.928Z,98337.38
2023-01-08T13:02:28.277Z,98327.84
2023-01-08T13:04:56.394Z,98327.97
2023-01-08T13:07:28.963Z,98329.88
2023-01-08T13:10:22.844Z,98326.41
2023-01-08T13:12:51.517Z,98322.94
2023-01-08T13:15:22.561Z,98325.69
2023-01-08T13:17:50.760Z,98323.22
2023-01-08T13:20:31.841Z,98322.25
2023-01-08T13:23:04.332Z,98322.63
2023-01-08T13:25:54.471Z,98323.59
2023-01-08T13:28:25.265Z,98326.38
2023-01-08T13:30:55.958Z,98331.75
2023-01-08T13:33:36.309Z,98310.25
2023-01-08T13:36:19.214Z,98300.84
2023-01-08T13:38:47.533Z,98291.44
2023-01-08T13:41:32.331Z,98293.25
2023-01-08T13:44:05.677Z,98287.16
2023-01-08T13:46:42.654Z,98291.59
2023-01-08T13:49:35.029Z,98288.50
2023-01-08T13:52:02.953Z,98281.25
2023-01-08T13:54:32.593Z,98277.66
2023-01-08T13:57:20.917Z,98274.47
2023-01-08T13:59:56.248Z,98266.97
2023-01-08T14:02:32.368Z,98267.94
2023-01-08T14:05:01.857Z,98265.69
2023-01-08T14:07:31.045Z,98271.19
2023-01-08T14:10:09.694Z,98268.56
2023-01-08T14:12:37.507Z,98265.13
2023-01-08T14:15:10.252Z,98268.72
2023-01-08T14:17:37.752Z,98267.88
2023-01-08T14:20:10.622Z,98252.75
2023-01-08T14:22:38.491Z,98250.38
2023-01-08T14:25:07.144Z,98239.16
2023-01-08T14:27:35.599Z,98232.94
2023-01-08T14:30:14.172Z,98224.78
2023-01-08T14:33:00.640Z,98228.16
2023-01-08T14:35:33.700Z,98214.28
2023-01-08T14:38:02.427Z,98216.09
2023-01-08T14:40:36.098Z,98206.66
2023-01-08T14:43:22.872Z,98212.63
2023-01-08T14:45:52.291Z,98204.75
2023-01-08T14:48:33.609Z,98194.97
2023-01-08T14:51:06.266Z,98193.72
2023-01-08T14:53:40.998Z,98195.81
2023-01-08T14:56:12.048Z,98184.22
2023-01-08T14:58:40.760Z,98177.75
2023-01-08T15:01:14.984Z,98179.84
2023-01-08T15:03:44.249Z,98178.75
2023-01-08T15:06:12.346Z,98172.38
2023-01-08T15:08:44.143Z,98175.72
2023-01-08T15:11:25.033Z,98171.88
2023-01-08T15:13:53.669Z,98175.06
2023-01-08T15:16:32.758Z,98171.03
2023-01-08T15:19:13.695Z,98171.50
2023-01-08T15:21:51.091Z,98171.78
2023-01-08T15:24:29.846Z,98167.75
2023-01-08T15:26:58.032Z,98164.91
2023-01-08T15:29:33.593Z,98149.53
2023-01-08T15:32:12.570Z,98142.59
2023-01-08T15:34:40.783Z,98133.56
2023-01-08T15:37:08.574Z,98145.47
2023-01-08T15:39:36.381Z,98157.09
2023-01-08T15:42:49.683Z,98153.78
2023-01-08T15:45:40.215Z,98156.41
2023-01-08T15:48:08.548Z,98157.25
2023-01-08T15:50:40.347Z,98155.56
2023-01-08T15:53:22.614Z,98150.44
2023-01-08T15:55:51.042Z,98143.25
2023-01-08T15:58:18.833Z,98141.03
2023-01-08T16:00:46.991Z,98130.91
2023-01-08T16:03:15.169Z,98130.59
2023-01-08T16:05:42.977Z,98127.41
2023-01-08T16:08:11.356Z,98115.50
2023-01-08T16:10:39.257Z,98128.19
2023-01-08T16:13:07.183Z,98127.06
2023-01-08T16:15:35.293Z,98136.19
2023-01-08T16:18:04.389Z,98127.03
2023-01-08T16:20:32.162Z,98122.88
2023-01-08T16:23:00.124Z,98122.31
2023-01-08T16:25:46.568Z,98131.22
2023-01-08T16:28:14.415Z,98121.16
2023-01-08T16:30:43.055Z,98108.31
2023-01-08T16:33:10.955Z,98101.56
2023-01-08T16:35:38.889Z,98095.88
2023-01-08T16:38:06.900Z,98099.09
2023-01-08T16:41:00.145Z,98085.38
2023-01-08T16:43:28.167Z,98080.56
2023-01-08T16:45:56.190Z,98070.06
2023-01-08T16:48:24.115Z,98080.19
2023-01-08T16:50:52.016Z,98083.16
2023-01-08T16:53:22.103Z,98081.56
2023-01-08T16:55:50.059Z,98081.34
2023-01-08T16:58:17.946Z,98075.97
2023-01-08T17:00:47.912Z,98073.22
2023-01-08T17:03:15.896Z,98075.34
2023-01-08T17:06:21.093Z,98074.13
2023-01-08T17:08:49.130Z,98079.13
2023-01-08T17:11:18.580Z,98091.84
2023-01-08T17:13:46.559Z,98108.25
2023-01-08T17:16:15.636Z,98110.94
2023-01-08T17:18:43.704Z,98100.03
2023-01-08T17:21:12.397Z,98103.88
2023-01-08T17:23:40.549Z,98115.34
2023-01-08T17:26:27.052Z,98113.00
2023-01-08T17:28:55.392Z,98114.06
2023-01-08T17:31:23.365Z,98122.31
2023-01-08T17:33:51.483Z,98127.56
2023-01-08T17:36:26.535Z,98126.25
2023-01-08T17:38:54.811Z,98130.00
2023-01-08T17:41:41.430Z,98146.06
2023-01-08T17:44:10.192Z,98146.81
2023-01-08T17:46:42.535Z,98143.00
2023-01-08T17:49:11.694Z,98142.72
2023-01-08T17:51:41.349Z,98139.31
2023-01-08T17:54:13.361Z,98139.69
2023-01-08T17:56:41.370Z,98115.16
2023-01-08T17:59:10.403Z,98133.84
2023-01-08T18:01:38.370Z,98132.66
2023-01-08T18:04:06.365Z,98161.25
2023-01-08T18:06:34.695Z,98155.97
2023-01-08T18:09:02.784Z,98131.53
2023-01-08T18:11:30.683Z,98114.13
2023-01-08T18:13:59.315Z,98092.75
2023-01-08T18:16:27.415Z,98093.63
2023-01-08T18:18:57.151Z,98075.34
2023-01-08T18:21:26.541Z,98063.50
2023-01-08T18:23:54.425Z,98051.41
2023-01-08T18:26:22.493Z,98045.94
2023-01-08T18:28:51.605Z,98052.16
2023-01-08T18:31:21.392Z,98051.19
2023-01-08T18:33:52.683Z,98032.22
2023-01-08T18:36:20.702Z,98030.28
2023-01-08T18:38:48.886Z,98030.09
2023-01-08T18:41:36.734Z,98027.66
2023-01-08T18:44:06.169Z,98030.34
2023-01-08T18:46:34.221Z,98029.69
2023-01-08T18:49:02.199Z,98047.03
2023-01-08T18:51:29.976Z,98041.00
2023-01-08T18:53:57.875Z,98036.38
2023-01-08T18:56:30.806Z,98054.00
2023-01-08T18:58:58.653Z,98033.03
2023-01-08T19:01:26.906Z,98023.53
2023-01-08T19:03:56.131Z,98024.63
2023-01-08T19:06:24.081Z,98025.88
2023-01-08T19:08:52.055Z,98013.31
2023-01-08T19:11:23.627Z,98029.09
2023-01-08T19:13:57.039Z,98048.75
2023-01-08T19:16:25.532Z,98058.31
2023-01-08T19:18:53.613Z,98068.97
2023-01-08T19:21:22.064Z,98065.91
2023-01-08T19:23:49.901Z,98071.75
2023-01-08T19:26:17.858Z,98071.47
2023-01-08T19:28:45.735Z,98048.63
2023-01-08T19:31:14.893Z,98051.38
2023-01-08T19:33:43.049Z,98040.00
2023-01-08T19:36:16.201Z,98018.84
2023-01-08T19:38:44.321Z,98036.31
2023-01-08T19:41:30.822Z,98049.72
2023-01-08T19:43:58.965Z,98065.06
2023-01-08T19:46:27.111Z,98057.44
2023-01-08T19:48:59.217Z,98065.47
2023-01-08T19:51:27.364Z,98064.09
2023-01-08T19:53:56.270Z,98047.63
2023-01-08T19:56:24.051Z,98022.00
2023-01-08T19:58:51.781Z,98021.75
2023-01-08T20:01:21.590Z,98012.63
2023-01-08T20:03:49.565Z,98004.16
2023-01-08T20:06:20.168Z,98009.84
2023-01-08T20:08:49.213Z,98004.31
2023-01-08T20:11:17.361Z,98009.56
2023-01-08T20:13:45.140Z,98004.16
2023-01-08T20:16:31.636Z,98008.63
2023-01-08T20:19:02.703Z,97998.94
2023-01-08T20:21:31.285Z,98015.09
2023-01-08T20:24:04.291Z,98028.91
2023-01-08T20:26:32.454Z,98018.00
2023-01-08T20:29:00.344Z,98020.78
2023-01-08T20:31:33.191Z,98018.53
2023-01-08T20:34:01.488Z,98018.69
2023-01-08T20:36:30.681Z,98023.28
2023-01-08T20:39:00.456Z,98018.41
2023-01-08T20:41:28.369Z,98025.19
2023-01-08T20:43:59.230Z,98022.19
2023-01-08T20:46:31.153Z,98024.09
2023-01-08T20:49:01.529Z,98015.53
2023-01-08T20:51:57.841Z,98018.97
2023-01-08T20:54:26.793Z,98005.53
2023-01-08T20:56:56.578Z,98003.72
2023-01-08T20:59:24.668Z,98017.28
2023-01-08T21:01:52.661Z,98024.06
2023-01-08T21:04:20.781Z,98015.09
2023-01-08T21:06:48.609Z,98002.88
2023-01-08T21:09:17.975Z,98001.06
2023-01-08T21:11:45.815Z,97994.97
2023-01-08T21:14:13.625Z,97996.78
2023-01-08T21:16:41.526Z,97994.31
2023-01-08T21:19:10.871Z,97996.94
2023-01-08T21:21:40.666Z,97990.03
2023-01-08T21:24:46.228Z,98000.56
2023-01-08T21:27:13.994Z,97986.31
2023-01-08T21:29:41.657Z,97976.59
2023-01-08T21:32:09.523Z,97985.59
2023-01-08T21:34:37.407Z,97982.56
2023-01-08T21:37:05.380Z,97976.91
2023-01-08T21:39:33.315Z,97975.78
2023-01-08T21:42:19.285Z,97973.00
2023-01-08T21:45:05.366Z,97975.53
2023-01-08T21:47:33.157Z,97976.91
2023-01-08T21:50:01.043Z,97973.44
2023-01-08T21:52:47.265Z,97973.44
2023-01-08T21:55:17.791Z,97973.44
2023-01-08T21:57:45.694Z,97980.91
2023-01-08T22:00:14.348Z,97981.59
2023-01-08T22:02:42.189Z,97974.72
2023-01-08T22:05:10.094Z,97966.66
2023-01-08T22:07:37.874Z,97960.31
2023-01-08T22:10:06.600Z,97973.16
2023-01-08T22:12:34.331Z,97968.88
2023-01-08T22:15:02.222Z,97967.91
2023-01-08T22:17:30.767Z,97964.28
2023-01-08T22:19:58.650Z,97957.09
2023-01-08T22:22:26.735Z,97956.69
2023-01-08T22:24:55.027Z,97965.53
2023-01-08T22:27:22.904Z,97961.41
2023-01-08T22:29:50.768Z,97958.06
2023-01-08T22:32:18.555Z,97951.56
2023-01-08T22:34:46.452Z,97953.66
2023-01-08T22:37:14.456Z,97950.34
2023-01-08T22:39:42.274Z,97964.88
2023-01-08T22:42:10.032Z,97968.78
2023-01-08T22:44:37.853Z,97963.38
2023-01-08T22:47:06.495Z,97959.78
2023-01-08T22:49:34.301Z,97941.09
2023-01-08T22:52:02.142Z,97925.88
2023-01-08T22:54:29.939Z,97925.28
2023-01-08T22:56:57.748Z,97914.22
2023-01-08T22:59:25.537Z,97907.16
2023-01-08T23:01:53.340Z,97911.00
2023-01-08T23:04:21.150Z,97907.41
2023-01-08T23:06:49.001Z,97919.44
2023-01-08T23:09:16.943Z,97910.28
2023-01-08T23:12:03.155Z,97907.88
2023-01-08T23:14:31.114Z,97911.91
2023-01-08T23:16:58.954Z,97921.31
2023-01-08T23:19:26.781Z,97914.13
2023-01-08T23:21:54.662Z,97908.03
2023-01-08T23:24:22.439Z,97893.16
2023-01-08T23:26:50.323Z,97888.47
2023-01-08T23:29:18.107Z,97890.66
2023-01-08T23:31:45.928Z,97890.06
2023-01-08T23:34:13.810Z,97870.81
2023-01-08T23:36:43.304Z,97862.75
2023-01-08T23:39:11.021Z,97844.47
2023-01-08T23:41:38.879Z,97846.13
2023-01-08T23:44:13.069Z,97844.47
2023-01-08T23:46:40.973Z,97839.88
2023-01-08T23:49:08.974Z,97851.69
2023-01-08T23:51:37.152Z,97845.44
2023-01-08T23:54:05.134Z,97838.69
2023-01-08T23:56:33.074Z,97839.66
2023-01-08T23:59:00.939Z,97835.91
